sensor_id;sensor_type;location;lat;lon;timestamp;P1;durP1;ratioP1;P2;durP2;ratioP2
2698;SDS011;1359;51.798;12.174;2023-04-23T00:00:05;15.57;;;12.37;;
2698;SDS011;1359;51.798;12.174;2023-04-23T00:02:37;14.17;;;12.67;;
2698;SDS011;1359;51.798;12.174;2023-04-23T00:05:03;25.17;;;12.00;;
2698;SDS011;1359;51.798;12.174;2023-04-23T00:07:31;14.87;;;12.10;;
2698;SDS011;1359;51.798;12.174;2023-04-23T00:09:56;15.70;;;13.70;;
2698;SDS011;1359;51.798;12.174;2023-04-23T00:12:22;18.00;;;13.00;;
2698;SDS011;1359;51.798;12.174;2023-04-23T00:14:47;17.87;;;13.03;;
2698;SDS011;1359;51.798;12.174;2023-04-23T00:17:13;17.77;;;13.40;;
2698;SDS011;1359;51.798;12.174;2023-04-23T00:19:38;17.03;;;13.70;;
2698;SDS011;1359;51.798;12.174;2023-04-23T00:22:03;15.10;;;13.50;;
2698;SDS011;1359;51.798;12.174;2023-04-23T00:24:29;13.97;;;12.57;;
2698;SDS011;1359;51.798;12.174;2023-04-23T00:26:56;15.57;;;12.40;;
2698;SDS011;1359;51.798;12.174;2023-04-23T00:29:21;20.40;;;13.67;;
2698;SDS011;1359;51.798;12.174;2023-04-23T00:31:46;20.53;;;12.30;;
2698;SDS011;1359;51.798;12.174;2023-04-23T00:34:12;18.23;;;12.80;;
2698;SDS011;1359;51.798;12.174;2023-04-23T00:36:37;17.63;;;12.70;;
2698;SDS011;1359;51.798;12.174;2023-04-23T00:39:03;16.93;;;14.03;;
2698;SDS011;1359;51.798;12.174;2023-04-23T00:41:28;16.70;;;11.33;;
2698;SDS011;1359;51.798;12.174;2023-04-23T00:43:54;13.77;;;12.30;;
2698;SDS011;1359;51.798;12.174;2023-04-23T00:46:21;14.53;;;11.50;;
2698;SDS011;1359;51.798;12.174;2023-04-23T00:48:47;13.73;;;12.27;;
2698;SDS011;1359;51.798;12.174;2023-04-23T00:51:13;15.73;;;13.33;;
2698;SDS011;1359;51.798;12.174;2023-04-23T00:53:40;21.83;;;12.80;;
2698;SDS011;1359;51.798;12.174;2023-04-23T00:56:05;14.33;;;11.40;;
2698;SDS011;1359;51.798;12.174;2023-04-23T00:58:32;16.20;;;12.30;;
2698;SDS011;1359;51.798;12.174;2023-04-23T01:00:58;12.83;;;11.40;;
2698;SDS011;1359;51.798;12.174;2023-04-23T01:03:25;14.67;;;12.30;;
2698;SDS011;1359;51.798;12.174;2023-04-23T01:05:50;15.73;;;11.30;;
2698;SDS011;1359;51.798;12.174;2023-04-23T01:08:18;15.50;;;12.00;;
2698;SDS011;1359;51.798;12.174;2023-04-23T01:10:44;12.67;;;10.97;;
2698;SDS011;1359;51.798;12.174;2023-04-23T01:13:13;14.70;;;12.53;;
2698;SDS011;1359;51.798;12.174;2023-04-23T01:15:38;13.67;;;12.10;;
2698;SDS011;1359;51.798;12.174;2023-04-23T01:18:04;16.70;;;12.27;;
2698;SDS011;1359;51.798;12.174;2023-04-23T01:20:32;14.20;;;12.10;;
2698;SDS011;1359;51.798;12.174;2023-04-23T01:22:59;13.20;;;10.40;;
2698;SDS011;1359;51.798;12.174;2023-04-23T01:25:25;13.23;;;11.87;;
2698;SDS011;1359;51.798;12.174;2023-04-23T01:27:50;18.13;;;12.03;;
2698;SDS011;1359;51.798;12.174;2023-04-23T01:30:16;12.73;;;10.90;;
2698;SDS011;1359;51.798;12.174;2023-04-23T01:32:42;11.93;;;10.50;;
2698;SDS011;1359;51.798;12.174;2023-04-23T01:35:08;12.80;;;11.50;;
2698;SDS011;1359;51.798;12.174;2023-04-23T01:37:34;18.00;;;11.17;;
2698;SDS011;1359;51.798;12.174;2023-04-23T01:40:00;11.83;;;10.63;;
2698;SDS011;1359;51.798;12.174;2023-04-23T01:42:25;14.90;;;9.33;;
2698;SDS011;1359;51.798;12.174;2023-04-23T01:44:52;12.80;;;10.77;;
2698;SDS011;1359;51.798;12.174;2023-04-23T01:47:18;17.07;;;10.70;;
2698;SDS011;1359;51.798;12.174;2023-04-23T01:49:43;11.90;;;10.40;;
2698;SDS011;1359;51.798;12.174;2023-04-23T01:52:08;11.33;;;9.90;;
2698;SDS011;1359;51.798;12.174;2023-04-23T01:54:34;15.37;;;10.57;;
2698;SDS011;1359;51.798;12.174;2023-04-23T01:56:59;10.70;;;9.70;;
2698;SDS011;1359;51.798;12.174;2023-04-23T01:59:25;10.73;;;9.13;;
2698;SDS011;1359;51.798;12.174;2023-04-23T02:01:50;12.30;;;9.43;;
2698;SDS011;1359;51.798;12.174;2023-04-23T02:04:16;9.97;;;8.97;;
2698;SDS011;1359;51.798;12.174;2023-04-23T02:06:43;13.20;;;9.80;;
2698;SDS011;1359;51.798;12.174;2023-04-23T02:09:08;9.27;;;8.47;;
2698;SDS011;1359;51.798;12.174;2023-04-23T02:11:34;10.07;;;9.07;;
2698;SDS011;1359;51.798;12.174;2023-04-23T02:14:00;14.77;;;9.83;;
2698;SDS011;1359;51.798;12.174;2023-04-23T02:16:25;10.37;;;8.17;;
2698;SDS011;1359;51.798;12.174;2023-04-23T02:18:52;9.50;;;8.50;;
2698;SDS011;1359;51.798;12.174;2023-04-23T02:21:18;12.30;;;9.80;;
2698;SDS011;1359;51.798;12.174;2023-04-23T02:23:43;10.43;;;9.00;;
2698;SDS011;1359;51.798;12.174;2023-04-23T02:26:09;11.90;;;8.27;;
2698;SDS011;1359;51.798;12.174;2023-04-23T02:28:34;10.23;;;9.23;;
2698;SDS011;1359;51.798;12.174;2023-04-23T02:30:59;11.57;;;9.07;;
2698;SDS011;1359;51.798;12.174;2023-04-23T02:33:25;10.57;;;8.30;;
2698;SDS011;1359;51.798;12.174;2023-04-23T02:35:50;13.80;;;8.93;;
2698;SDS011;1359;51.798;12.174;2023-04-23T02:38:16;20.83;;;9.10;;
2698;SDS011;1359;51.798;12.174;2023-04-23T02:40:41;11.93;;;10.43;;
2698;SDS011;1359;51.798;12.174;2023-04-23T02:43:07;11.43;;;9.07;;
2698;SDS011;1359;51.798;12.174;2023-04-23T02:45:33;11.93;;;10.80;;
2698;SDS011;1359;51.798;12.174;2023-04-23T02:47:58;10.67;;;9.17;;
2698;SDS011;1359;51.798;12.174;2023-04-23T02:50:23;11.40;;;10.33;;
2698;SDS011;1359;51.798;12.174;2023-04-23T02:52:49;10.53;;;8.80;;
2698;SDS011;1359;51.798;12.174;2023-04-23T02:55:14;11.33;;;8.97;;
2698;SDS011;1359;51.798;12.174;2023-04-23T02:57:40;9.80;;;8.90;;
2698;SDS011;1359;51.798;12.174;2023-04-23T03:00:06;11.60;;;9.90;;
2698;SDS011;1359;51.798;12.174;2023-04-23T03:02:37;12.67;;;9.73;;
2698;SDS011;1359;51.798;12.174;2023-04-23T03:05:03;13.63;;;10.20;;
2698;SDS011;1359;51.798;12.174;2023-04-23T03:07:29;13.20;;;10.60;;
2698;SDS011;1359;51.798;12.174;2023-04-23T03:09:54;9.47;;;8.50;;
2698;SDS011;1359;51.798;12.174;2023-04-23T03:12:19;10.13;;;9.10;;
2698;SDS011;1359;51.798;12.174;2023-04-23T03:14:45;11.70;;;10.40;;
2698;SDS011;1359;51.798;12.174;2023-04-23T03:17:10;10.60;;;9.43;;
2698;SDS011;1359;51.798;12.174;2023-04-23T03:19:36;11.00;;;9.07;;
2698;SDS011;1359;51.798;12.174;2023-04-23T03:22:01;11.10;;;9.27;;
2698;SDS011;1359;51.798;12.174;2023-04-23T03:24:31;15.03;;;10.00;;
2698;SDS011;1359;51.798;12.174;2023-04-23T03:26:56;11.37;;;10.17;;
2698;SDS011;1359;51.798;12.174;2023-04-23T03:29:22;9.83;;;8.90;;
2698;SDS011;1359;51.798;12.174;2023-04-23T03:31:47;11.07;;;9.97;;
2698;SDS011;1359;51.798;12.174;2023-04-23T03:34:13;17.07;;;9.10;;
2698;SDS011;1359;51.798;12.174;2023-04-23T03:36:39;9.77;;;8.77;;
2698;SDS011;1359;51.798;12.174;2023-04-23T03:39:05;9.37;;;8.57;;
2698;SDS011;1359;51.798;12.174;2023-04-23T03:41:43;11.03;;;8.70;;
2698;SDS011;1359;51.798;12.174;2023-04-23T03:44:10;10.27;;;9.10;;
2698;SDS011;1359;51.798;12.174;2023-04-23T03:46:41;12.97;;;8.97;;
2698;SDS011;1359;51.798;12.174;2023-04-23T03:49:07;9.07;;;8.17;;
2698;SDS011;1359;51.798;12.174;2023-04-23T03:51:32;8.03;;;7.30;;
2698;SDS011;1359;51.798;12.174;2023-04-23T03:53:58;10.00;;;8.60;;
2698;SDS011;1359;51.798;12.174;2023-04-23T03:56:32;9.53;;;8.20;;
2698;SDS011;1359;51.798;12.174;2023-04-23T03:59:14;8.23;;;7.43;;
2698;SDS011;1359;51.798;12.174;2023-04-23T04:01:39;9.13;;;8.00;;
2698;SDS011;1359;51.798;12.174;2023-04-23T04:04:05;17.57;;;8.90;;
2698;SDS011;1359;51.798;12.174;2023-04-23T04:06:31;8.37;;;7.57;;
2698;SDS011;1359;51.798;12.174;2023-04-23T04:08:57;10.27;;;9.03;;
2698;SDS011;1359;51.798;12.174;2023-04-23T04:11:22;11.87;;;7.80;;
2698;SDS011;1359;51.798;12.174;2023-04-23T04:13:47;8.93;;;7.67;;
2698;SDS011;1359;51.798;12.174;2023-04-23T04:16:12;9.83;;;8.10;;
2698;SDS011;1359;51.798;12.174;2023-04-23T04:18:38;9.33;;;7.97;;
2698;SDS011;1359;51.798;12.174;2023-04-23T04:21:03;7.33;;;6.63;;
2698;SDS011;1359;51.798;12.174;2023-04-23T04:23:29;10.93;;;6.67;;
2698;SDS011;1359;51.798;12.174;2023-04-23T04:25:54;13.60;;;8.13;;
2698;SDS011;1359;51.798;12.174;2023-04-23T04:28:22;8.47;;;7.67;;
2698;SDS011;1359;51.798;12.174;2023-04-23T04:30:49;9.27;;;8.47;;
2698;SDS011;1359;51.798;12.174;2023-04-23T04:33:15;10.33;;;8.10;;
2698;SDS011;1359;51.798;12.174;2023-04-23T04:35:40;8.87;;;7.77;;
2698;SDS011;1359;51.798;12.174;2023-04-23T04:38:07;9.10;;;8.03;;
2698;SDS011;1359;51.798;12.174;2023-04-23T04:40:32;11.87;;;7.67;;
2698;SDS011;1359;51.798;12.174;2023-04-23T04:42:58;12.73;;;7.63;;
2698;SDS011;1359;51.798;12.174;2023-04-23T04:45:24;8.70;;;7.90;;
2698;SDS011;1359;51.798;12.174;2023-04-23T04:47:50;8.43;;;7.57;;
2698;SDS011;1359;51.798;12.174;2023-04-23T04:50:15;11.50;;;7.63;;
2698;SDS011;1359;51.798;12.174;2023-04-23T04:52:41;10.40;;;7.93;;
2698;SDS011;1359;51.798;12.174;2023-04-23T04:55:06;7.97;;;7.20;;
2698;SDS011;1359;51.798;12.174;2023-04-23T04:57:32;9.07;;;7.43;;
2698;SDS011;1359;51.798;12.174;2023-04-23T04:59:57;7.70;;;6.77;;
2698;SDS011;1359;51.798;12.174;2023-04-23T05:02:22;8.23;;;6.97;;
2698;SDS011;1359;51.798;12.174;2023-04-23T05:04:48;8.00;;;7.20;;
2698;SDS011;1359;51.798;12.174;2023-04-23T05:07:13;9.27;;;8.37;;
2698;SDS011;1359;51.798;12.174;2023-04-23T05:09:39;8.10;;;7.30;;
2698;SDS011;1359;51.798;12.174;2023-04-23T05:12:04;10.23;;;7.37;;
2698;SDS011;1359;51.798;12.174;2023-04-23T05:14:31;9.37;;;7.70;;
2698;SDS011;1359;51.798;12.174;2023-04-23T05:16:57;7.80;;;7.00;;
2698;SDS011;1359;51.798;12.174;2023-04-23T05:19:22;9.37;;;7.53;;
2698;SDS011;1359;51.798;12.174;2023-04-23T05:21:47;8.53;;;7.63;;
2698;SDS011;1359;51.798;12.174;2023-04-23T05:24:13;9.97;;;7.43;;
2698;SDS011;1359;51.798;12.174;2023-04-23T05:26:38;7.97;;;6.60;;
2698;SDS011;1359;51.798;12.174;2023-04-23T05:29:03;10.83;;;8.57;;
2698;SDS011;1359;51.798;12.174;2023-04-23T05:31:29;7.40;;;6.67;;
2698;SDS011;1359;51.798;12.174;2023-04-23T05:33:54;7.47;;;6.70;;
2698;SDS011;1359;51.798;12.174;2023-04-23T05:36:20;7.03;;;6.43;;
2698;SDS011;1359;51.798;12.174;2023-04-23T05:38:45;7.53;;;6.83;;
2698;SDS011;1359;51.798;12.174;2023-04-23T05:41:10;7.27;;;6.63;;
2698;SDS011;1359;51.798;12.174;2023-04-23T05:43:36;8.50;;;7.80;;
2698;SDS011;1359;51.798;12.174;2023-04-23T05:46:01;7.70;;;6.90;;
2698;SDS011;1359;51.798;12.174;2023-04-23T05:48:28;10.25;;;7.40;;
2698;SDS011;1359;51.798;12.174;2023-04-23T05:50:54;7.83;;;7.13;;
2698;SDS011;1359;51.798;12.174;2023-04-23T05:53:19;7.00;;;6.27;;
2698;SDS011;1359;51.798;12.174;2023-04-23T05:55:44;8.40;;;7.60;;
2698;SDS011;1359;51.798;12.174;2023-04-23T05:58:10;8.70;;;6.63;;
2698;SDS011;1359;51.798;12.174;2023-04-23T06:00:35;8.63;;;7.73;;
2698;SDS011;1359;51.798;12.174;2023-04-23T06:03:01;7.77;;;7.07;;
2698;SDS011;1359;51.798;12.174;2023-04-23T06:05:26;10.10;;;8.57;;
2698;SDS011;1359;51.798;12.174;2023-04-23T06:07:52;8.83;;;6.93;;
2698;SDS011;1359;51.798;12.174;2023-04-23T06:10:17;8.10;;;7.30;;
2698;SDS011;1359;51.798;12.174;2023-04-23T06:12:42;8.40;;;6.90;;
2698;SDS011;1359;51.798;12.174;2023-04-23T06:15:08;11.70;;;8.00;;
2698;SDS011;1359;51.798;12.174;2023-04-23T06:17:36;8.80;;;6.97;;
2698;SDS011;1359;51.798;12.174;2023-04-23T06:20:02;7.90;;;7.13;;
2698;SDS011;1359;51.798;12.174;2023-04-23T06:22:29;12.70;;;7.93;;
2698;SDS011;1359;51.798;12.174;2023-04-23T06:24:54;9.70;;;7.40;;
2698;SDS011;1359;51.798;12.174;2023-04-23T06:27:20;7.13;;;6.43;;
2698;SDS011;1359;51.798;12.174;2023-04-23T06:29:48;9.80;;;7.57;;
2698;SDS011;1359;51.798;12.174;2023-04-23T06:32:14;7.63;;;6.73;;
2698;SDS011;1359;51.798;12.174;2023-04-23T06:34:39;8.90;;;6.60;;
2698;SDS011;1359;51.798;12.174;2023-04-23T06:37:04;10.77;;;7.07;;
2698;SDS011;1359;51.798;12.174;2023-04-23T06:39:30;7.63;;;6.37;;
2698;SDS011;1359;51.798;12.174;2023-04-23T06:41:55;6.67;;;5.97;;
2698;SDS011;1359;51.798;12.174;2023-04-23T06:44:32;7.97;;;6.53;;
2698;SDS011;1359;51.798;12.174;2023-04-23T06:46:58;7.73;;;6.53;;
2698;SDS011;1359;51.798;12.174;2023-04-23T06:49:24;7.00;;;6.30;;
2698;SDS011;1359;51.798;12.174;2023-04-23T06:51:49;11.13;;;6.70;;
2698;SDS011;1359;51.798;12.174;2023-04-23T06:54:14;7.47;;;5.90;;
2698;SDS011;1359;51.798;12.174;2023-04-23T06:56:39;8.97;;;6.27;;
2698;SDS011;1359;51.798;12.174;2023-04-23T06:59:05;5.80;;;5.20;;
2698;SDS011;1359;51.798;12.174;2023-04-23T07:01:33;10.63;;;6.47;;
2698;SDS011;1359;51.798;12.174;2023-04-23T07:03:59;10.60;;;9.33;;
2698;SDS011;1359;51.798;12.174;2023-04-23T07:06:25;7.43;;;6.07;;
2698;SDS011;1359;51.798;12.174;2023-04-23T07:08:51;8.40;;;5.77;;
2698;SDS011;1359;51.798;12.174;2023-04-23T07:11:17;10.30;;;6.67;;
2698;SDS011;1359;51.798;12.174;2023-04-23T07:13:42;5.63;;;5.13;;
2698;SDS011;1359;51.798;12.174;2023-04-23T07:16:07;8.37;;;6.00;;
2698;SDS011;1359;51.798;12.174;2023-04-23T07:18:33;6.27;;;5.17;;
2698;SDS011;1359;51.798;12.174;2023-04-23T07:20:58;6.93;;;5.57;;
2698;SDS011;1359;51.798;12.174;2023-04-23T07:23:23;6.50;;;5.90;;
2698;SDS011;1359;51.798;12.174;2023-04-23T07:25:49;6.17;;;5.67;;
2698;SDS011;1359;51.798;12.174;2023-04-23T07:28:14;8.63;;;5.70;;
2698;SDS011;1359;51.798;12.174;2023-04-23T07:30:39;5.40;;;5.00;;
2698;SDS011;1359;51.798;12.174;2023-04-23T07:33:05;8.20;;;5.87;;
2698;SDS011;1359;51.798;12.174;2023-04-23T07:35:30;11.03;;;7.93;;
2698;SDS011;1359;51.798;12.174;2023-04-23T07:37:55;9.80;;;7.47;;
2698;SDS011;1359;51.798;12.174;2023-04-23T07:40:22;11.93;;;8.43;;
2698;SDS011;1359;51.798;12.174;2023-04-23T07:42:47;10.47;;;8.50;;
2698;SDS011;1359;51.798;12.174;2023-04-23T07:45:13;10.03;;;7.80;;
2698;SDS011;1359;51.798;12.174;2023-04-23T07:47:39;9.60;;;8.60;;
2698;SDS011;1359;51.798;12.174;2023-04-23T07:50:05;9.47;;;8.07;;
2698;SDS011;1359;51.798;12.174;2023-04-23T07:52:30;8.23;;;7.37;;
2698;SDS011;1359;51.798;12.174;2023-04-23T07:54:56;9.47;;;8.40;;
2698;SDS011;1359;51.798;12.174;2023-04-23T07:57:21;16.43;;;6.63;;
2698;SDS011;1359;51.798;12.174;2023-04-23T07:59:46;10.20;;;8.83;;
2698;SDS011;1359;51.798;12.174;2023-04-23T08:02:12;10.63;;;9.53;;
2698;SDS011;1359;51.798;12.174;2023-04-23T08:04:37;9.90;;;8.70;;
2698;SDS011;1359;51.798;12.174;2023-04-23T08:07:02;10.20;;;8.70;;
2698;SDS011;1359;51.798;12.174;2023-04-23T08:09:27;11.30;;;9.13;;
2698;SDS011;1359;51.798;12.174;2023-04-23T08:11:53;11.57;;;9.40;;
2698;SDS011;1359;51.798;12.174;2023-04-23T08:14:19;12.07;;;9.23;;
2698;SDS011;1359;51.798;12.174;2023-04-23T08:16:44;11.90;;;10.50;;
2698;SDS011;1359;51.798;12.174;2023-04-23T08:19:09;11.70;;;9.70;;
2698;SDS011;1359;51.798;12.174;2023-04-23T08:21:36;12.87;;;11.47;;
2698;SDS011;1359;51.798;12.174;2023-04-23T08:24:01;13.17;;;10.40;;
2698;SDS011;1359;51.798;12.174;2023-04-23T08:26:27;11.40;;;10.20;;
2698;SDS011;1359;51.798;12.174;2023-04-23T08:28:52;13.40;;;10.40;;
2698;SDS011;1359;51.798;12.174;2023-04-23T08:31:18;16.87;;;11.90;;
2698;SDS011;1359;51.798;12.174;2023-04-23T08:33:43;14.10;;;11.40;;
2698;SDS011;1359;51.798;12.174;2023-04-23T08:36:08;16.73;;;13.93;;
2698;SDS011;1359;51.798;12.174;2023-04-23T08:38:34;20.03;;;12.67;;
2698;SDS011;1359;51.798;12.174;2023-04-23T08:40:59;14.20;;;10.50;;
2698;SDS011;1359;51.798;12.174;2023-04-23T08:43:50;17.83;;;12.50;;
2698;SDS011;1359;51.798;12.174;2023-04-23T08:46:12;17.73;;;13.70;;
2698;SDS011;1359;51.798;12.174;2023-04-23T08:48:38;19.47;;;14.73;;
2698;SDS011;1359;51.798;12.174;2023-04-23T08:51:04;18.17;;;14.60;;
2698;SDS011;1359;51.798;12.174;2023-04-23T08:53:30;18.90;;;14.30;;
2698;SDS011;1359;51.798;12.174;2023-04-23T08:55:56;17.70;;;12.90;;
2698;SDS011;1359;51.798;12.174;2023-04-23T08:58:22;14.63;;;12.40;;
2698;SDS011;1359;51.798;12.174;2023-04-23T09:00:48;16.87;;;14.00;;
2698;SDS011;1359;51.798;12.174;2023-04-23T09:03:17;16.50;;;12.23;;
2698;SDS011;1359;51.798;12.174;2023-04-23T09:05:43;18.07;;;11.87;;
2698;SDS011;1359;51.798;12.174;2023-04-23T09:08:08;16.80;;;12.13;;
2698;SDS011;1359;51.798;12.174;2023-04-23T09:10:34;15.40;;;10.83;;
2698;SDS011;1359;51.798;12.174;2023-04-23T09:13:01;14.27;;;10.70;;
2698;SDS011;1359;51.798;12.174;2023-04-23T09:15:26;14.30;;;11.77;;
2698;SDS011;1359;51.798;12.174;2023-04-23T09:17:52;15.77;;;11.90;;
2698;SDS011;1359;51.798;12.174;2023-04-23T09:20:17;15.73;;;9.90;;
2698;SDS011;1359;51.798;12.174;2023-04-23T09:22:49;14.27;;;10.43;;
2698;SDS011;1359;51.798;12.174;2023-04-23T09:25:17;13.53;;;11.53;;
2698;SDS011;1359;51.798;12.174;2023-04-23T09:27:43;17.90;;;11.60;;
2698;SDS011;1359;51.798;12.174;2023-04-23T09:30:09;13.47;;;11.73;;
2698;SDS011;1359;51.798;12.174;2023-04-23T09:32:35;11.57;;;10.37;;
2698;SDS011;1359;51.798;12.174;2023-04-23T09:35:02;12.23;;;11.03;;
2698;SDS011;1359;51.798;12.174;2023-04-23T09:37:28;19.00;;;11.30;;
2698;SDS011;1359;51.798;12.174;2023-04-23T09:39:53;13.73;;;10.17;;
2698;SDS011;1359;51.798;12.174;2023-04-23T09:42:25;13.60;;;10.53;;
2698;SDS011;1359;51.798;12.174;2023-04-23T09:44:55;15.27;;;11.33;;
2698;SDS011;1359;51.798;12.174;2023-04-23T09:47:20;14.13;;;11.20;;
2698;SDS011;1359;51.798;12.174;2023-04-23T09:49:46;15.97;;;11.50;;
2698;SDS011;1359;51.798;12.174;2023-04-23T09:52:12;12.63;;;9.83;;
2698;SDS011;1359;51.798;12.174;2023-04-23T09:54:37;11.37;;;10.17;;
2698;SDS011;1359;51.798;12.174;2023-04-23T09:57:03;12.90;;;9.87;;
2698;SDS011;1359;51.798;12.174;2023-04-23T09:59:32;11.90;;;9.97;;
2698;SDS011;1359;51.798;12.174;2023-04-23T10:02:00;12.20;;;9.27;;
2698;SDS011;1359;51.798;12.174;2023-04-23T10:04:26;11.27;;;9.50;;
2698;SDS011;1359;51.798;12.174;2023-04-23T10:09:23;9.83;;;7.33;;
2698;SDS011;1359;51.798;12.174;2023-04-23T10:11:58;8.57;;;6.50;;
2698;SDS011;1359;51.798;12.174;2023-04-23T10:14:24;10.77;;;7.03;;
2698;SDS011;1359;51.798;12.174;2023-04-23T10:16:51;6.63;;;5.70;;
2698;SDS011;1359;51.798;12.174;2023-04-23T10:19:18;7.03;;;5.10;;
2698;SDS011;1359;51.798;12.174;2023-04-23T10:21:48;6.77;;;5.57;;
2698;SDS011;1359;51.798;12.174;2023-04-23T10:24:14;7.57;;;6.30;;
2698;SDS011;1359;51.798;12.174;2023-04-23T10:26:41;9.53;;;7.70;;
2698;SDS011;1359;51.798;12.174;2023-04-23T10:29:08;7.20;;;6.50;;
2698;SDS011;1359;51.798;12.174;2023-04-23T10:31:36;6.40;;;5.23;;
2698;SDS011;1359;51.798;12.174;2023-04-23T10:34:01;5.90;;;5.40;;
2698;SDS011;1359;51.798;12.174;2023-04-23T10:36:31;6.67;;;5.97;;
2698;SDS011;1359;51.798;12.174;2023-04-23T10:38:57;7.83;;;7.03;;
2698;SDS011;1359;51.798;12.174;2023-04-23T10:41:24;10.27;;;6.47;;
2698;SDS011;1359;51.798;12.174;2023-04-23T10:43:53;11.53;;;7.77;;
2698;SDS011;1359;51.798;12.174;2023-04-23T10:46:29;9.33;;;8.43;;
2698;SDS011;1359;51.798;12.174;2023-04-23T10:51:35;8.57;;;7.67;;
2698;SDS011;1359;51.798;12.174;2023-04-23T10:54:01;6.23;;;5.63;;
2698;SDS011;1359;51.798;12.174;2023-04-23T10:56:27;4.73;;;4.17;;
2698;SDS011;1359;51.798;12.174;2023-04-23T10:58:52;5.17;;;4.67;;
2698;SDS011;1359;51.798;12.174;2023-04-23T11:01:18;5.73;;;5.13;;
2698;SDS011;1359;51.798;12.174;2023-04-23T11:03:44;6.20;;;5.00;;
2698;SDS011;1359;51.798;12.174;2023-04-23T11:06:12;3.97;;;3.53;;
2698;SDS011;1359;51.798;12.174;2023-04-23T11:08:49;9.50;;;3.53;;
2698;SDS011;1359;51.798;12.174;2023-04-23T11:11:15;3.10;;;2.80;;
2698;SDS011;1359;51.798;12.174;2023-04-23T11:13:49;4.13;;;2.10;;
2698;SDS011;1359;51.798;12.174;2023-04-23T11:24:10;3.23;;;2.43;;
2698;SDS011;1359;51.798;12.174;2023-04-23T11:26:35;3.70;;;2.73;;
2698;SDS011;1359;51.798;12.174;2023-04-23T11:29:02;3.47;;;3.17;;
2698;SDS011;1359;51.798;12.174;2023-04-23T11:31:28;3.00;;;2.67;;
2698;SDS011;1359;51.798;12.174;2023-04-23T11:33:53;2.97;;;2.30;;
2698;SDS011;1359;51.798;12.174;2023-04-23T11:36:18;2.40;;;2.20;;
2698;SDS011;1359;51.798;12.174;2023-04-23T11:38:44;5.47;;;3.23;;
2698;SDS011;1359;51.798;12.174;2023-04-23T11:41:10;7.10;;;3.37;;
2698;SDS011;1359;51.798;12.174;2023-04-23T11:43:36;3.20;;;2.90;;
2698;SDS011;1359;51.798;12.174;2023-04-23T11:46:01;3.07;;;2.60;;
2698;SDS011;1359;51.798;12.174;2023-04-23T11:48:26;3.33;;;3.03;;
2698;SDS011;1359;51.798;12.174;2023-04-23T11:50:52;5.37;;;3.43;;
2698;SDS011;1359;51.798;12.174;2023-04-23T11:53:17;3.33;;;3.03;;
2698;SDS011;1359;51.798;12.174;2023-04-23T11:55:43;3.30;;;3.00;;
2698;SDS011;1359;51.798;12.174;2023-04-23T11:58:16;3.97;;;3.27;;
2698;SDS011;1359;51.798;12.174;2023-04-23T12:00:41;3.70;;;3.40;;
2698;SDS011;1359;51.798;12.174;2023-04-23T12:03:07;4.47;;;3.57;;
2698;SDS011;1359;51.798;12.174;2023-04-23T12:05:33;3.40;;;2.70;;
2698;SDS011;1359;51.798;12.174;2023-04-23T12:08:06;4.33;;;3.13;;
2698;SDS011;1359;51.798;12.174;2023-04-23T12:10:33;3.20;;;2.67;;
2698;SDS011;1359;51.798;12.174;2023-04-23T12:13:05;3.27;;;3.00;;
2698;SDS011;1359;51.798;12.174;2023-04-23T12:15:30;3.47;;;3.07;;
2698;SDS011;1359;51.798;12.174;2023-04-23T12:18:08;5.70;;;3.20;;
2698;SDS011;1359;51.798;12.174;2023-04-23T12:20:34;4.60;;;3.57;;
2698;SDS011;1359;51.798;12.174;2023-04-23T12:23:03;2.97;;;2.67;;
2698;SDS011;1359;51.798;12.174;2023-04-23T12:25:29;3.40;;;3.20;;
2698;SDS011;1359;51.798;12.174;2023-04-23T12:27:57;3.00;;;2.70;;
2698;SDS011;1359;51.798;12.174;2023-04-23T12:30:27;2.90;;;2.60;;
2698;SDS011;1359;51.798;12.174;2023-04-23T12:32:57;3.10;;;2.80;;
2698;SDS011;1359;51.798;12.174;2023-04-23T12:35:36;3.30;;;3.00;;
2698;SDS011;1359;51.798;12.174;2023-04-23T12:38:03;3.20;;;2.83;;
2698;SDS011;1359;51.798;12.174;2023-04-23T12:40:28;3.10;;;2.80;;
2698;SDS011;1359;51.798;12.174;2023-04-23T12:42:54;3.70;;;3.40;;
2698;SDS011;1359;51.798;12.174;2023-04-23T12:45:19;4.73;;;3.57;;
2698;SDS011;1359;51.798;12.174;2023-04-23T12:47:44;3.70;;;3.40;;
2698;SDS011;1359;51.798;12.174;2023-04-23T12:50:10;4.03;;;3.63;;
2698;SDS011;1359;51.798;12.174;2023-04-23T12:52:36;4.03;;;2.90;;
2698;SDS011;1359;51.798;12.174;2023-04-23T12:55:02;4.20;;;2.73;;
2698;SDS011;1359;51.798;12.174;2023-04-23T12:57:29;3.47;;;3.17;;
2698;SDS011;1359;51.798;12.174;2023-04-23T12:59:54;5.77;;;3.07;;
2698;SDS011;1359;51.798;12.174;2023-04-23T13:02:20;4.20;;;3.80;;
2698;SDS011;1359;51.798;12.174;2023-04-23T13:04:45;3.80;;;3.50;;
2698;SDS011;1359;51.798;12.174;2023-04-23T13:07:11;4.10;;;3.70;;
2698;SDS011;1359;51.798;12.174;2023-04-23T13:09:36;4.03;;;3.63;;
2698;SDS011;1359;51.798;12.174;2023-04-23T13:12:01;4.67;;;4.27;;
2698;SDS011;1359;51.798;12.174;2023-04-23T13:14:27;6.23;;;4.83;;
2698;SDS011;1359;51.798;12.174;2023-04-23T13:16:52;6.43;;;4.90;;
2698;SDS011;1359;51.798;12.174;2023-04-23T13:19:18;4.70;;;4.30;;
2698;SDS011;1359;51.798;12.174;2023-04-23T13:21:43;4.10;;;3.80;;
2698;SDS011;1359;51.798;12.174;2023-04-23T13:24:09;4.73;;;4.07;;
2698;SDS011;1359;51.798;12.174;2023-04-23T13:26:34;4.53;;;3.87;;
2698;SDS011;1359;51.798;12.174;2023-04-23T13:29:01;3.90;;;3.60;;
2698;SDS011;1359;51.798;12.174;2023-04-23T13:31:26;4.07;;;3.77;;
2698;SDS011;1359;51.798;12.174;2023-04-23T13:33:52;4.03;;;3.63;;
2698;SDS011;1359;51.798;12.174;2023-04-23T13:36:17;4.60;;;4.17;;
2698;SDS011;1359;51.798;12.174;2023-04-23T13:38:42;5.33;;;4.23;;
2698;SDS011;1359;51.798;12.174;2023-04-23T13:41:08;5.57;;;4.93;;
2698;SDS011;1359;51.798;12.174;2023-04-23T13:43:33;5.07;;;4.60;;
2698;SDS011;1359;51.798;12.174;2023-04-23T13:45:58;4.10;;;3.70;;
2698;SDS011;1359;51.798;12.174;2023-04-23T13:48:25;4.80;;;4.07;;
2698;SDS011;1359;51.798;12.174;2023-04-23T13:50:55;3.83;;;3.43;;
2698;SDS011;1359;51.798;12.174;2023-04-23T13:53:20;7.30;;;3.33;;
2698;SDS011;1359;51.798;12.174;2023-04-23T13:55:45;4.17;;;3.40;;
2698;SDS011;1359;51.798;12.174;2023-04-23T13:58:11;4.13;;;3.40;;
2698;SDS011;1359;51.798;12.174;2023-04-23T14:00:37;5.40;;;3.20;;
2698;SDS011;1359;51.798;12.174;2023-04-23T14:03:02;6.73;;;3.90;;
2698;SDS011;1359;51.798;12.174;2023-04-23T14:05:27;4.13;;;3.73;;
2698;SDS011;1359;51.798;12.174;2023-04-23T14:07:53;4.60;;;2.80;;
2698;SDS011;1359;51.798;12.174;2023-04-23T14:10:18;4.33;;;3.43;;
2698;SDS011;1359;51.798;12.174;2023-04-23T14:12:44;6.10;;;3.30;;
2698;SDS011;1359;51.798;12.174;2023-04-23T14:15:10;4.27;;;3.87;;
2698;SDS011;1359;51.798;12.174;2023-04-23T14:17:36;4.40;;;3.20;;
2698;SDS011;1359;51.798;12.174;2023-04-23T14:20:03;3.47;;;3.20;;
2698;SDS011;1359;51.798;12.174;2023-04-23T14:22:30;3.60;;;3.30;;
2698;SDS011;1359;51.798;12.174;2023-04-23T14:24:56;3.70;;;3.40;;
2698;SDS011;1359;51.798;12.174;2023-04-23T14:27:25;3.60;;;3.30;;
2698;SDS011;1359;51.798;12.174;2023-04-23T14:29:56;4.83;;;4.07;;
2698;SDS011;1359;51.798;12.174;2023-04-23T14:32:21;3.90;;;3.50;;
2698;SDS011;1359;51.798;12.174;2023-04-23T14:34:47;4.03;;;3.63;;
2698;SDS011;1359;51.798;12.174;2023-04-23T14:37:12;3.83;;;3.53;;
2698;SDS011;1359;51.798;12.174;2023-04-23T14:39:38;3.90;;;3.20;;
2698;SDS011;1359;51.798;12.174;2023-04-23T14:42:03;5.20;;;3.00;;
2698;SDS011;1359;51.798;12.174;2023-04-23T14:44:28;3.33;;;3.03;;
2698;SDS011;1359;51.798;12.174;2023-04-23T14:46:54;3.20;;;2.70;;
2698;SDS011;1359;51.798;12.174;2023-04-23T14:49:19;2.60;;;2.40;;
2698;SDS011;1359;51.798;12.174;2023-04-23T14:51:49;4.43;;;2.70;;
2698;SDS011;1359;51.798;12.174;2023-04-23T14:54:18;3.23;;;2.97;;
2698;SDS011;1359;51.798;12.174;2023-04-23T14:56:43;2.83;;;2.63;;